sensor_id;sensor_type;location;lat;lon;timestamp;temperature;humidity
30288;DHT22;17103;48.316;11.558;2024-02-26T00:01:43;13.40;36.50
30288;DHT22;17103;48.316;11.558;2024-02-26T00:04:11;13.40;36.50
30288;DHT22;17103;48.316;11.558;2024-02-26T00:06:39;13.40;36.50
30288;DHT22;17103;48.316;11.558;2024-02-26T00:09:08;13.30;36.40
30288;DHT22;17103;48.316;11.558;2024-02-26T00:11:41;13.30;36.50
30288;DHT22;17103;48.316;11.558;2024-02-26T00:14:07;13.30;36.50
30288;DHT22;17103;48.316;11.558;2024-02-26T00:16:34;13.30;36.50
30288;DHT22;17103;48.316;11.558;2024-02-26T00:19:07;13.30;36.50
30288;DHT22;17103;48.316;11.558;2024-02-26T00:21:34;13.30;36.70
30288;DHT22;17103;48.316;11.558;2024-02-26T00:24:00;13.20;36.50
30288;DHT22;17103;48.316;11.558;2024-02-26T00:26:27;13.20;36.50
30288;DHT22;17103;48.316;11.558;2024-02-26T00:28:53;13.20;36.50
30288;DHT22;17103;48.316;11.558;2024-02-26T00:31:25;13.20;36.50
30288;DHT22;17103;48.316;11.558;2024-02-26T00:33:52;13.20;36.60
30288;DHT22;17103;48.316;11.558;2024-02-26T00:36:20;13.20;36.60
30288;DHT22;17103;48.316;11.558;2024-02-26T00:38:45;13.20;36.60
30288;DHT22;17103;48.316;11.558;2024-02-26T00:41:16;14.00;37.30
30288;DHT22;17103;48.316;11.558;2024-02-26T00:43:42;13.10;36.60
30288;DHT22;17103;48.316;11.558;2024-02-26T00:46:08;13.10;37.10
30288;DHT22;17103;48.316;11.558;2024-02-26T00:48:33;13.10;36.60
30288;DHT22;17103;48.316;11.558;2024-02-26T00:50:59;13.00;36.50
30288;DHT22;17103;48.316;11.558;2024-02-26T00:53:25;13.00;36.60
30288;DHT22;17103;48.316;11.558;2024-02-26T00:55:51;13.00;36.60
30288;DHT22;17103;48.316;11.558;2024-02-26T00:58:16;13.10;36.70
30288;DHT22;17103;48.316;11.558;2024-02-26T01:00:42;13.00;36.60
30288;DHT22;17103;48.316;11.558;2024-02-26T01:03:09;13.10;36.70
30288;DHT22;17103;48.316;11.558;2024-02-26T01:05:36;13.00;36.60
30288;DHT22;17103;48.316;11.558;2024-02-26T01:08:03;13.20;36.70
30288;DHT22;17103;48.316;11.558;2024-02-26T01:10:29;13.00;36.20
30288;DHT22;17103;48.316;11.558;2024-02-26T01:12:54;12.90;36.50
30288;DHT22;17103;48.316;11.558;2024-02-26T01:15:20;13.00;36.50
30288;DHT22;17103;48.316;11.558;2024-02-26T01:17:49;12.90;36.50
30288;DHT22;17103;48.316;11.558;2024-02-26T01:20:15;12.90;36.50
30288;DHT22;17103;48.316;11.558;2024-02-26T01:22:43;13.10;36.70
30288;DHT22;17103;48.316;11.558;2024-02-26T01:25:10;12.80;36.50
30288;DHT22;17103;48.316;11.558;2024-02-26T01:27:36;12.90;36.60
30288;DHT22;17103;48.316;11.558;2024-02-26T01:30:03;12.80;36.50
30288;DHT22;17103;48.316;11.558;2024-02-26T01:32:29;12.80;36.60
30288;DHT22;17103;48.316;11.558;2024-02-26T01:34:56;12.80;36.60
30288;DHT22;17103;48.316;11.558;2024-02-26T01:37:21;12.80;36.60
30288;DHT22;17103;48.316;11.558;2024-02-26T01:39:47;12.80;36.60
30288;DHT22;17103;48.316;11.558;2024-02-26T01:42:13;12.80;36.60
30288;DHT22;17103;48.316;11.558;2024-02-26T01:44:38;12.80;36.70
30288;DHT22;17103;48.316;11.558;2024-02-26T01:47:05;12.80;36.70
30288;DHT22;17103;48.316;11.558;2024-02-26T01:49:34;12.70;36.70
30288;DHT22;17103;48.316;11.558;2024-02-26T01:52:01;12.70;36.70
30288;DHT22;17103;48.316;11.558;2024-02-26T01:54:28;12.80;36.80
30288;DHT22;17103;48.316;11.558;2024-02-26T01:56:55;12.70;36.70
30288;DHT22;17103;48.316;11.558;2024-02-26T01:59:21;12.70;36.70
30288;DHT22;17103;48.316;11.558;2024-02-26T02:01:52;12.70;36.70
30288;DHT22;17103;48.316;11.558;2024-02-26T02:04:18;12.70;36.70
30288;DHT22;17103;48.316;11.558;2024-02-26T02:06:45;12.70;36.60
30288;DHT22;17103;48.316;11.558;2024-02-26T02:09:11;12.70;36.60
30288;DHT22;17103;48.316;11.558;2024-02-26T02:11:37;12.70;36.60
30288;DHT22;17103;48.316;11.558;2024-02-26T02:14:03;12.70;36.60
30288;DHT22;17103;48.316;11.558;2024-02-26T02:16:29;12.70;36.60
30288;DHT22;17103;48.316;11.558;2024-02-26T02:18:55;12.60;36.60
30288;DHT22;17103;48.316;11.558;2024-02-26T02:21:20;12.60;36.50
30288;DHT22;17103;48.316;11.558;2024-02-26T02:23:47;12.60;36.50
30288;DHT22;17103;48.316;11.558;2024-02-26T02:26:15;13.10;36.90
30288;DHT22;17103;48.316;11.558;2024-02-26T02:28:41;12.60;36.50
30288;DHT22;17103;48.316;11.558;2024-02-26T02:31:07;12.60;36.50
30288;DHT22;17103;48.316;11.558;2024-02-26T02:33:36;12.60;36.20
30288;DHT22;17103;48.316;11.558;2024-02-26T02:36:03;12.50;36.50
30288;DHT22;17103;48.316;11.558;2024-02-26T02:38:28;12.60;37.10
30288;DHT22;17103;48.316;11.558;2024-02-26T02:40:56;12.50;36.50
30288;DHT22;17103;48.316;11.558;2024-02-26T02:43:21;12.50;36.50
30288;DHT22;17103;48.316;11.558;2024-02-26T02:45:47;12.50;36.50
30288;DHT22;17103;48.316;11.558;2024-02-26T02:48:14;13.10;37.00
30288;DHT22;17103;48.316;11.558;2024-02-26T02:50:39;12.60;36.60
30288;DHT22;17103;48.316;11.558;2024-02-26T02:53:05;12.50;36.50
30288;DHT22;17103;48.316;11.558;2024-02-26T02:55:31;12.50;36.50
30288;DHT22;17103;48.316;11.558;2024-02-26T02:57:56;12.60;36.60
30288;DHT22;17103;48.316;11.558;2024-02-26T03:00:22;12.50;36.50
30288;DHT22;17103;48.316;11.558;2024-02-26T03:02:50;12.80;36.80
30288;DHT22;17103;48.316;11.558;2024-02-26T03:05:16;12.50;36.50
30288;DHT22;17103;48.316;11.558;2024-02-26T03:07:42;12.40;36.50
30288;DHT22;17103;48.316;11.558;2024-02-26T03:10:07;12.40;36.50
30288;DHT22;17103;48.316;11.558;2024-02-26T03:12:34;12.40;36.50
30288;DHT22;17103;48.316;11.558;2024-02-26T03:15:00;12.40;36.50
30288;DHT22;17103;48.316;11.558;2024-02-26T03:17:29;12.40;36.50
30288;DHT22;17103;48.316;11.558;2024-02-26T03:19:55;12.40;36.50
30288;DHT22;17103;48.316;11.558;2024-02-26T03:22:24;12.40;36.50
30288;DHT22;17103;48.316;11.558;2024-02-26T03:24:49;12.40;36.50
30288;DHT22;17103;48.316;11.558;2024-02-26T03:27:15;12.50;36.60
30288;DHT22;17103;48.316;11.558;2024-02-26T03:29:41;12.40;36.50
30288;DHT22;17103;48.316;11.558;2024-02-26T03:32:07;12.30;36.40
30288;DHT22;17103;48.316;11.558;2024-02-26T03:34:33;12.40;36.50
30288;DHT22;17103;48.316;11.558;2024-02-26T03:37:04;12.30;36.50
30288;DHT22;17103;48.316;11.558;2024-02-26T03:39:31;12.30;36.50
30288;DHT22;17103;48.316;11.558;2024-02-26T03:41:58;12.30;36.50
30288;DHT22;17103;48.316;11.558;2024-02-26T03:44:24;12.30;36.60
30288;DHT22;17103;48.316;11.558;2024-02-26T03:46:50;12.60;36.80
30288;DHT22;17103;48.316;11.558;2024-02-26T03:49:17;12.30;36.60
30288;DHT22;17103;48.316;11.558;2024-02-26T03:51:43;12.30;36.70
30288;DHT22;17103;48.316;11.558;2024-02-26T03:54:09;12.30;36.70
30288;DHT22;17103;48.316;11.558;2024-02-26T03:56:34;12.30;36.70
30288;DHT22;17103;48.316;11.558;2024-02-26T03:59:00;12.40;36.80
30288;DHT22;17103;48.316;11.558;2024-02-26T04:01:27;12.30;36.80
30288;DHT22;17103;48.316;11.558;2024-02-26T04:03:54;12.30;36.80
30288;DHT22;17103;48.316;11.558;2024-02-26T04:06:19;12.80;37.20
30288;DHT22;17103;48.316;11.558;2024-02-26T04:08:49;12.30;36.80
30288;DHT22;17103;48.316;11.558;2024-02-26T04:11:15;12.30;36.90
30288;DHT22;17103;48.316;11.558;2024-02-26T04:13:46;12.30;36.90
30288;DHT22;17103;48.316;11.558;2024-02-26T04:16:15;12.20;36.80
30288;DHT22;17103;48.316;11.558;2024-02-26T04:18:42;12.20;36.70
30288;DHT22;17103;48.316;11.558;2024-02-26T04:21:07;12.20;36.70
30288;DHT22;17103;48.316;11.558;2024-02-26T04:23:34;12.20;36.70
30288;DHT22;17103;48.316;11.558;2024-02-26T04:26:00;12.20;36.70
30288;DHT22;17103;48.316;11.558;2024-02-26T04:28:25;12.30;36.80
30288;DHT22;17103;48.316;11.558;2024-02-26T04:30:54;12.20;36.70
30288;DHT22;17103;48.316;11.558;2024-02-26T04:33:20;12.20;36.70
30288;DHT22;17103;48.316;11.558;2024-02-26T04:35:45;12.20;36.80
30288;DHT22;17103;48.316;11.558;2024-02-26T04:38:11;12.20;36.90
30288;DHT22;17103;48.316;11.558;2024-02-26T04:40:37;12.20;37.00
30288;DHT22;17103;48.316;11.558;2024-02-26T04:43:03;12.20;37.00
30288;DHT22;17103;48.316;11.558;2024-02-26T04:45:29;12.20;36.90
30288;DHT22;17103;48.316;11.558;2024-02-26T04:47:55;12.20;37.40
30288;DHT22;17103;48.316;11.558;2024-02-26T04:50:20;12.30;37.50
30288;DHT22;17103;48.316;11.558;2024-02-26T04:52:46;12.70;37.30
30288;DHT22;17103;48.316;11.558;2024-02-26T04:55:12;12.20;36.80
30288;DHT22;17103;48.316;11.558;2024-02-26T04:57:37;12.20;36.80
30288;DHT22;17103;48.316;11.558;2024-02-26T05:00:04;12.20;36.80
30288;DHT22;17103;48.316;11.558;2024-02-26T05:02:30;12.20;36.80
30288;DHT22;17103;48.316;11.558;2024-02-26T05:04:57;12.20;36.80
30288;DHT22;17103;48.316;11.558;2024-02-26T05:07:23;12.20;36.90
30288;DHT22;17103;48.316;11.558;2024-02-26T05:09:48;12.50;37.10
30288;DHT22;17103;48.316;11.558;2024-02-26T05:12:15;12.10;36.90
30288;DHT22;17103;48.316;11.558;2024-02-26T05:14:41;12.10;36.90
30288;DHT22;17103;48.316;11.558;2024-02-26T05:17:06;12.20;37.00
30288;DHT22;17103;48.316;11.558;2024-02-26T05:19:33;12.10;37.00
30288;DHT22;17103;48.316;11.558;2024-02-26T05:22:00;12.20;37.10
30288;DHT22;17103;48.316;11.558;2024-02-26T05:24:25;12.10;37.00
30288;DHT22;17103;48.316;11.558;2024-02-26T05:26:51;12.10;37.00
30288;DHT22;17103;48.316;11.558;2024-02-26T05:29:17;12.10;37.00
30288;DHT22;17103;48.316;11.558;2024-02-26T05:31:42;12.10;37.00
30288;DHT22;17103;48.316;11.558;2024-02-26T05:34:08;12.10;37.00
30288;DHT22;17103;48.316;11.558;2024-02-26T05:36:34;12.10;37.00
30288;DHT22;17103;48.316;11.558;2024-02-26T05:39:01;12.30;37.20
30288;DHT22;17103;48.316;11.558;2024-02-26T05:41:27;12.10;37.10
30288;DHT22;17103;48.316;11.558;2024-02-26T05:43:53;12.10;37.10
30288;DHT22;17103;48.316;11.558;2024-02-26T05:46:20;12.10;37.10
30288;DHT22;17103;48.316;11.558;2024-02-26T05:48:51;12.10;37.00
30288;DHT22;17103;48.316;11.558;2024-02-26T05:51:18;12.10;37.10
30288;DHT22;17103;48.316;11.558;2024-02-26T05:53:44;12.10;37.10
30288;DHT22;17103;48.316;11.558;2024-02-26T05:56:12;12.10;37.10
30288;DHT22;17103;48.316;11.558;2024-02-26T05:58:39;12.10;37.10
30288;DHT22;17103;48.316;11.558;2024-02-26T06:01:04;12.10;37.10
30288;DHT22;17103;48.316;11.558;2024-02-26T06:03:30;12.10;37.10
30288;DHT22;17103;48.316;11.558;2024-02-26T06:05:55;12.10;37.00
30288;DHT22;17103;48.316;11.558;2024-02-26T06:08:21;12.10;37.00
30288;DHT22;17103;48.316;11.558;2024-02-26T06:10:47;12.10;37.00
30288;DHT22;17103;48.316;11.558;2024-02-26T06:13:13;12.10;37.10
30288;DHT22;17103;48.316;11.558;2024-02-26T06:15:39;12.10;37.10
30288;DHT22;17103;48.316;11.558;2024-02-26T06:18:04;12.10;37.10
30288;DHT22;17103;48.316;11.558;2024-02-26T06:20:30;12.10;37.10
30288;DHT22;17103;48.316;11.558;2024-02-26T06:22:56;12.10;37.10
30288;DHT22;17103;48.316;11.558;2024-02-26T06:25:21;12.20;36.70
30288;DHT22;17103;48.316;11.558;2024-02-26T06:27:47;12.10;36.30
30288;DHT22;17103;48.316;11.558;2024-02-26T06:30:13;12.10;36.00
30288;DHT22;17103;48.316;11.558;2024-02-26T06:32:38;12.00;35.80
30288;DHT22;17103;48.316;11.558;2024-02-26T06:35:04;11.90;35.80
30288;DHT22;17103;48.316;11.558;2024-02-26T06:37:34;11.80;35.70
30288;DHT22;17103;48.316;11.558;2024-02-26T06:40:01;11.70;35.80
30288;DHT22;17103;48.316;11.558;2024-02-26T06:42:29;11.50;35.80
30288;DHT22;17103;48.316;11.558;2024-02-26T06:44:56;11.40;35.80
30288;DHT22;17103;48.316;11.558;2024-02-26T06:47:21;11.30;36.00
30288;DHT22;17103;48.316;11.558;2024-02-26T06:49:50;11.20;36.10
30288;DHT22;17103;48.316;11.558;2024-02-26T06:52:16;11.70;36.80
30288;DHT22;17103;48.316;11.558;2024-02-26T06:54:42;11.00;36.30
30288;DHT22;17103;48.316;11.558;2024-02-26T06:57:08;11.20;36.70
30288;DHT22;17103;48.316;11.558;2024-02-26T06:59:34;10.80;36.60
30288;DHT22;17103;48.316;11.558;2024-02-26T07:02:01;10.70;36.70
30288;DHT22;17103;48.316;11.558;2024-02-26T07:04:27;10.60;36.90
30288;DHT22;17103;48.316;11.558;2024-02-26T07:06:54;10.50;36.80
30288;DHT22;17103;48.316;11.558;2024-02-26T07:09:19;10.50;37.10
30288;DHT22;17103;48.316;11.558;2024-02-26T07:11:45;10.40;37.10
30288;DHT22;17103;48.316;11.558;2024-02-26T07:14:12;10.30;37.20
30288;DHT22;17103;48.316;11.558;2024-02-26T07:16:37;11.10;38.10
30288;DHT22;17103;48.316;11.558;2024-02-26T07:19:04;10.20;37.40
30288;DHT22;17103;48.316;11.558;2024-02-26T07:21:30;10.20;37.60
30288;DHT22;17103;48.316;11.558;2024-02-26T07:23:56;10.20;37.70
30288;DHT22;17103;48.316;11.558;2024-02-26T07:26:22;10.10;37.70
30288;DHT22;17103;48.316;11.558;2024-02-26T07:29:02;10.10;37.90
30288;DHT22;17103;48.316;11.558;2024-02-26T07:31:29;10.10;38.20
30288;DHT22;17103;48.316;11.558;2024-02-26T07:33:55;10.10;38.10
30288;DHT22;17103;48.316;11.558;2024-02-26T07:36:20;10.00;38.10
30288;DHT22;17103;48.316;11.558;2024-02-26T07:38:47;10.00;38.00
30288;DHT22;17103;48.316;11.558;2024-02-26T07:41:12;10.00;38.20
30288;DHT22;17103;48.316;11.558;2024-02-26T07:43:39;10.00;38.30
30288;DHT22;17103;48.316;11.558;2024-02-26T07:46:06;10.00;38.40
30288;DHT22;17103;48.316;11.558;2024-02-26T07:48:33;10.00;38.50
30288;DHT22;17103;48.316;11.558;2024-02-26T07:50:59;10.00;38.60
30288;DHT22;17103;48.316;11.558;2024-02-26T07:53:25;10.00;38.70
30288;DHT22;17103;48.316;11.558;2024-02-26T07:55:51;10.00;38.60
30288;DHT22;17103;48.316;11.558;2024-02-26T07:58:17;10.60;39.20
30288;DHT22;17103;48.316;11.558;2024-02-26T08:00:43;10.00;38.70
30288;DHT22;17103;48.316;11.558;2024-02-26T08:03:12;10.00;38.90
30288;DHT22;17103;48.316;11.558;2024-02-26T08:05:38;10.00;38.80
30288;DHT22;17103;48.316;11.558;2024-02-26T08:08:06;10.00;38.70
30288;DHT22;17103;48.316;11.558;2024-02-26T08:10:32;10.00;38.80
30288;DHT22;17103;48.316;11.558;2024-02-26T08:12:57;10.00;39.00
30288;DHT22;17103;48.316;11.558;2024-02-26T08:15:31;9.90;39.80
30288;DHT22;17103;48.316;11.558;2024-02-26T08:17:57;9.90;39.90
30288;DHT22;17103;48.316;11.558;2024-02-26T08:20:22;9.90;40.00
30288;DHT22;17103;48.316;11.558;2024-02-26T08:22:48;10.00;39.50
30288;DHT22;17103;48.316;11.558;2024-02-26T08:25:13;10.00;39.40
30288;DHT22;17103;48.316;11.558;2024-02-26T08:27:41;10.00;39.30
30288;DHT22;17103;48.316;11.558;2024-02-26T08:30:07;10.00;39.30
30288;DHT22;17103;48.316;11.558;2024-02-26T08:32:33;10.00;39.40
30288;DHT22;17103;48.316;11.558;2024-02-26T08:34:58;10.00;39.40
30288;DHT22;17103;48.316;11.558;2024-02-26T08:37:24;10.00;39.50
30288;DHT22;17103;48.316;11.558;2024-02-26T08:39:50;10.10;39.60
30288;DHT22;17103;48.316;11.558;2024-02-26T08:42:15;10.10;39.60
30288;DHT22;17103;48.316;11.558;2024-02-26T08:44:41;10.20;39.70
30288;DHT22;17103;48.316;11.558;2024-02-26T08:47:07;10.20;39.70
30288;DHT22;17103;48.316;11.558;2024-02-26T08:49:32;10.30;39.80
30288;DHT22;17103;48.316;11.558;2024-02-26T08:51:58;10.40;39.80
30288;DHT22;17103;48.316;11.558;2024-02-26T08:54:24;10.40;39.90
30288;DHT22;17103;48.316;11.558;2024-02-26T08:56:50;10.40;39.90
30288;DHT22;17103;48.316;11.558;2024-02-26T08:59:15;10.50;40.10
30288;DHT22;17103;48.316;11.558;2024-02-26T09:01:42;10.60;40.10
30288;DHT22;17103;48.316;11.558;2024-02-26T09:04:07;10.60;40.10
30288;DHT22;17103;48.316;11.558;2024-02-26T09:06:33;10.60;40.00
30288;DHT22;17103;48.316;11.558;2024-02-26T09:08:59;10.70;40.20
30288;DHT22;17103;48.316;11.558;2024-02-26T09:11:25;10.70;40.20
30288;DHT22;17103;48.316;11.558;2024-02-26T09:13:52;10.80;40.30
30288;DHT22;17103;48.316;11.558;2024-02-26T09:16:17;10.80;40.50
30288;DHT22;17103;48.316;11.558;2024-02-26T09:18:43;10.80;40.40
30288;DHT22;17103;48.316;11.558;2024-02-26T09:21:09;10.80;40.50
30288;DHT22;17103;48.316;11.558;2024-02-26T09:23:35;10.90;40.40
30288;DHT22;17103;48.316;11.558;2024-02-26T09:26:05;11.00;40.50
30288;DHT22;17103;48.316;11.558;2024-02-26T09:28:31;10.70;40.30
30288;DHT22;17103;48.316;11.558;2024-02-26T09:31:00;11.10;40.70
30288;DHT22;17103;48.316;11.558;2024-02-26T09:33:25;11.00;40.50
30288;DHT22;17103;48.316;11.558;2024-02-26T09:35:51;11.00;40.30
30288;DHT22;17103;48.316;11.558;2024-02-26T09:38:17;11.10;40.20
30288;DHT22;17103;48.316;11.558;2024-02-26T09:40:43;11.10;40.00
30288;DHT22;17103;48.316;11.558;2024-02-26T09:43:14;11.20;39.90
30288;DHT22;17103;48.316;11.558;2024-02-26T09:45:41;11.20;39.80
30288;DHT22;17103;48.316;11.558;2024-02-26T09:48:08;11.30;39.90
30288;DHT22;17103;48.316;11.558;2024-02-26T09:50:36;11.30;39.80
30288;DHT22;17103;48.316;11.558;2024-02-26T09:53:04;11.40;39.90
30288;DHT22;17103;48.316;11.558;2024-02-26T09:55:30;11.50;39.90
30288;DHT22;17103;48.316;11.558;2024-02-26T09:57:57;11.50;39.90
30288;DHT22;17103;48.316;11.558;2024-02-26T10:00:25;11.60;40.00
30288;DHT22;17103;48.316;11.558;2024-02-26T10:02:52;11.70;40.00
30288;DHT22;17103;48.316;11.558;2024-02-26T10:05:19;11.80;40.00
30288;DHT22;17103;48.316;11.558;2024-02-26T10:07:45;11.90;40.00
30288;DHT22;17103;48.316;11.558;2024-02-26T10:10:12;12.00;40.00
30288;DHT22;17103;48.316;11.558;2024-02-26T10:12:38;12.70;40.60
30288;DHT22;17103;48.316;11.558;2024-02-26T10:15:04;12.30;40.20
30288;DHT22;17103;48.316;11.558;2024-02-26T10:17:30;12.40;40.20
30288;DHT22;17103;48.316;11.558;2024-02-26T10:20:13;12.50;40.20
30288;DHT22;17103;48.316;11.558;2024-02-26T10:22:43;12.70;40.50
30288;DHT22;17103;48.316;11.558;2024-02-26T10:25:09;12.80;40.40
30288;DHT22;17103;48.316;11.558;2024-02-26T10:27:35;12.90;40.40
30288;DHT22;17103;48.316;11.558;2024-02-26T10:30:15;13.00;40.30
30288;DHT22;17103;48.316;11.558;2024-02-26T10:32:41;13.30;40.00
30288;DHT22;17103;48.316;11.558;2024-02-26T10:35:10;13.30;40.20
30288;DHT22;17103;48.316;11.558;2024-02-26T10:37:36;13.40;40.00
30288;DHT22;17103;48.316;11.558;2024-02-26T10:40:01;13.50;39.90
30288;DHT22;17103;48.316;11.558;2024-02-26T10:42:28;13.40;39.60
30288;DHT22;17103;48.316;11.558;2024-02-26T10:44:54;13.70;39.70
30288;DHT22;17103;48.316;11.558;2024-02-26T10:47:19;13.80;39.80
30288;DHT22;17103;48.316;11.558;2024-02-26T10:49:46;13.80;39.70
30288;DHT22;17103;48.316;11.558;2024-02-26T10:52:14;13.90;39.70
30288;DHT22;17103;48.316;11.558;2024-02-26T10:54:41;14.00;39.70
30288;DHT22;17103;48.316;11.558;2024-02-26T10:57:09;14.00;39.60
30288;DHT22;17103;48.316;11.558;2024-02-26T10:59:35;14.10;39.60
30288;DHT22;17103;48.316;11.558;2024-02-26T11:02:02;14.10;39.60
30288;DHT22;17103;48.316;11.558;2024-02-26T11:04:29;14.20;39.60
30288;DHT22;17103;48.316;11.558;2024-02-26T11:06:57;14.30;39.50
30288;DHT22;17103;48.316;11.558;2024-02-26T11:09:23;14.30;39.40
30288;DHT22;17103;48.316;11.558;2024-02-26T11:11:50;14.40;39.60
30288;DHT22;17103;48.316;11.558;2024-02-26T11:14:20;14.50;39.50
30288;DHT22;17103;48.316;11.558;2024-02-26T11:16:47;14.50;39.30
30288;DHT22;17103;48.316;11.558;2024-02-26T11:19:15;14.60;39.30
30288;DHT22;17103;48.316;11.558;2024-02-26T11:21:43;14.60;39.20
30288;DHT22;17103;48.316;11.558;2024-02-26T11:24:12;14.70;39.20
30288;DHT22;17103;48.316;11.558;2024-02-26T11:26:45;14.80;39.00
30288;DHT22;17103;48.316;11.558;2024-02-26T11:29:17;14.90;38.90
30288;DHT22;17103;48.316;11.558;2024-02-26T11:31:44;14.90;38.80
30288;DHT22;17103;48.316;11.558;2024-02-26T11:34:10;15.00;38.70
30288;DHT22;17103;48.316;11.558;2024-02-26T11:36:37;15.10;38.70
30288;DHT22;17103;48.316;11.558;2024-02-26T11:39:04;15.20;39.10
30288;DHT22;17103;48.316;11.558;2024-02-26T11:41:30;15.30;39.20
30288;DHT22;17103;48.316;11.558;2024-02-26T11:44:01;15.50;39.40
30288;DHT22;17103;48.316;11.558;2024-02-26T11:46:32;15.60;39.40
30288;DHT22;17103;48.316;11.558;2024-02-26T11:51:56;15.90;39.60
30288;DHT22;17103;48.316;11.558;2024-02-26T11:54:49;16.10;39.20
30288;DHT22;17103;48.316;11.558;2024-02-26T11:57:38;16.30;39.30
30288;DHT22;17103;48.316;11.558;2024-02-26T12:00:13;16.50;39.50
30288;DHT22;17103;48.316;11.558;2024-02-26T12:05:19;16.80;39.40
30288;DHT22;17103;48.316;11.558;2024-02-26T12:07:49;16.90;39.40
30288;DHT22;17103;48.316;11.558;2024-02-26T12:10:37;17.00;38.80
30288;DHT22;17103;48.316;11.558;2024-02-26T12:15:43;17.40;39.40
30288;DHT22;17103;48.316;11.558;2024-02-26T12:18:17;17.50;38.70
30288;DHT22;17103;48.316;11.558;2024-02-26T12:20:44;17.60;38.50
30288;DHT22;17103;48.316;11.558;2024-02-26T12:23:15;18.20;39.20
30288;DHT22;17103;48.316;11.558;2024-02-26T12:25:43;18.00;38.60
30288;DHT22;17103;48.316;11.558;2024-02-26T12:28:09;18.00;38.80
30288;DHT22;17103;48.316;11.558;2024-02-26T12:30:35;18.10;39.00
30288;DHT22;17103;48.316;11.558;2024-02-26T12:33:01;18.50;39.00
30288;DHT22;17103;48.316;11.558;2024-02-26T12:35:28;18.40;39.00
30288;DHT22;17103;48.316;11.558;2024-02-26T12:37:54;19.00;39.30
30288;DHT22;17103;48.316;11.558;2024-02-26T12:40:20;18.60;38.40
30288;DHT22;17103;48.316;11.558;2024-02-26T12:42:46;18.70;38.20
30288;DHT22;17103;48.316;11.558;2024-02-26T12:45:13;19.00;38.80
30288;DHT22;17103;48.316;11.558;2024-02-26T12:47:40;19.00;38.60
30288;DHT22;17103;48.316;11.558;2024-02-26T12:50:07;19.10;38.10
30288;DHT22;17103;48.316;11.558;2024-02-26T12:52:35;19.20;38.20
30288;DHT22;17103;48.316;11.558;2024-02-26T12:55:04;19.30;38.00
30288;DHT22;17103;48.316;11.558;2024-02-26T12:57:32;19.40;37.80
30288;DHT22;17103;48.316;11.558;2024-02-26T12:59:59;19.60;37.60
30288;DHT22;17103;48.316;11.558;2024-02-26T13:02:26;19.70;37.50
30288;DHT22;17103;48.316;11.558;2024-02-26T13:04:52;19.80;38.00
30288;DHT22;17103;48.316;11.558;2024-02-26T13:07:20;19.80;37.00
30288;DHT22;17103;48.316;11.558;2024-02-26T13:09:45;20.00;36.80
30288;DHT22;17103;48.316;11.558;2024-02-26T13:12:12;20.00;37.00
30288;DHT22;17103;48.316;11.558;2024-02-26T13:14:38;20.10;36.70
30288;DHT22;17103;48.316;11.558;2024-02-26T13:17:04;20.20;36.60
30288;DHT22;17103;48.316;11.558;2024-02-26T13:19:30;20.30;36.60
30288;DHT22;17103;48.316;11.558;2024-02-26T13:21:55;20.40;36.40
30288;DHT22;17103;48.316;11.558;2024-02-26T13:24:22;20.40;36.10
30288;DHT22;17103;48.316;11.558;2024-02-26T13:26:54;20.60;36.40
30288;DHT22;17103;48.316;11.558;2024-02-26T13:29:20;20.70;35.30
30288;DHT22;17103;48.316;11.558;2024-02-26T13:31:46;20.80;35.80
30288;DHT22;17103;48.316;11.558;2024-02-26T13:34:23;20.90;36.40
30288;DHT22;17103;48.316;11.558;2024-02-26T13:36:50;21.00;35.30
30288;DHT22;17103;48.316;11.558;2024-02-26T13:39:22;21.10;35.70
30288;DHT22;17103;48.316;11.558;2024-02-26T13:41:49;21.10;35.30
30288;DHT22;17103;48.316;11.558;2024-02-26T13:44:41;21.20;35.20
30288;DHT22;17103;48.316;11.558;2024-02-26T13:47:15;21.30;34.70
30288;DHT22;17103;48.316;11.558;2024-02-26T13:49:42;21.30;34.00
30288;DHT22;17103;48.316;11.558;2024-02-26T13:52:07;21.30;34.30
30288;DHT22;17103;48.316;11.558;2024-02-26T13:54:33;21.30;33.80
30288;DHT22;17103;48.316;11.558;2024-02-26T13:56:59;21.40;33.80
30288;DHT22;17103;48.316;11.558;2024-02-26T13:59:25;21.40;33.50
30288;DHT22;17103;48.316;11.558;2024-02-26T14:01:50;21.40;33.30
30288;DHT22;17103;48.316;11.558;2024-02-26T14:04:18;21.40;33.20
30288;DHT22;17103;48.316;11.558;2024-02-26T14:06:44;21.40;33.00
30288;DHT22;17103;48.316;11.558;2024-02-26T14:09:09;21.50;33.00
30288;DHT22;17103;48.316;11.558;2024-02-26T14:11:35;21.40;33.10
30288;DHT22;17103;48.316;11.558;2024-02-26T14:14:01;21.50;33.20
30288;DHT22;17103;48.316;11.558;2024-02-26T14:16:27;21.40;33.10
30288;DHT22;17103;48.316;11.558;2024-02-26T14:18:53;21.40;32.80
30288;DHT22;17103;48.316;11.558;2024-02-26T14:21:18;21.50;32.70
30288;DHT22;17103;48.316;11.558;2024-02-26T14:23:44;21.40;32.50
30288;DHT22;17103;48.316;11.558;2024-02-26T14:26:10;21.40;32.30
30288;DHT22;17103;48.316;11.558;2024-02-26T14:28:36;21.30;31.90
30288;DHT22;17103;48.316;11.558;2024-02-26T14:31:02;21.40;32.10
30288;DHT22;17103;48.316;11.558;2024-02-26T14:33:29;21.30;32.00
30288;DHT22;17103;48.316;11.558;2024-02-26T14:35:56;21.50;32.00
30288;DHT22;17103;48.316;11.558;2024-02-26T14:38:21;21.20;32.00
30288;DHT22;17103;48.316;11.558;2024-02-26T14:40:49;21.20;32.00
30288;DHT22;17103;48.316;11.558;2024-02-26T14:43:14;21.10;32.30
30288;DHT22;17103;48.316;11.558;2024-02-26T14:45:40;21.00;31.60
30288;DHT22;17103;48.316;11.558;2024-02-26T14:48:07;21.10;31.60
30288;DHT22;17103;48.316;11.558;2024-02-26T14:50:33;20.90;31.40
30288;DHT22;17103;48.316;11.558;2024-02-26T14:52:59;20.90;31.30
30288;DHT22;17103;48.316;11.558;2024-02-26T14:55:25;20.80;31.40
30288;DHT22;17103;48.316;11.558;2024-02-26T14:57:51;20.70;31.20
30288;DHT22;17103;48.316;11.558;2024-02-26T15:00:17;20.70;31.10
30288;DHT22;17103;48.316;11.558;2024-02-26T15:02:43;20.50;31.00
30288;DHT22;17103;48.316;11.558;2024-02-26T15:05:09;20.40;31.00
30288;DHT22;17103;48.316;11.558;2024-02-26T15:07:36;20.30;31.10
30288;DHT22;17103;48.316;11.558;2024-02-26T15:10:08;20.10;31.00
30288;DHT22;17103;48.316;11.558;2024-02-26T15:12:34;20.00;31.10
30288;DHT22;17103;48.316;11.558;2024-02-26T15:15:00;19.90;31.20
30288;DHT22;17103;48.316;11.558;2024-02-26T15:17:27;19.80;31.30
30288;DHT22;17103;48.316;11.558;2024-02-26T15:19:58;19.60;31.30
30288;DHT22;17103;48.316;11.558;2024-02-26T15:22:24;19.60;31.70